sensor_id;sensor_type;location;lat;lon;timestamp;pressure;altitude;pressure_sealevel;temperature;humidity
30682;BME280;17439;48.092;11.842;2022-10-19T00:01:11;96347.06;;;17.49;64.83
30682;BME280;17439;48.092;11.842;2022-10-19T00:03:38;96345.09;;;17.49;64.05
30682;BME280;17439;48.092;11.842;2022-10-19T00:06:12;96339.63;;;17.49;64.48
30682;BME280;17439;48.092;11.842;2022-10-19T00:08:40;96339.63;;;17.49;64.15
30682;BME280;17439;48.092;11.842;2022-10-19T00:11:07;96337.22;;;17.48;64.14
30682;BME280;17439;48.092;11.842;2022-10-19T00:13:33;96339.16;;;17.47;63.99
30682;BME280;17439;48.092;11.842;2022-10-19T00:16:00;96338.69;;;17.45;63.85
30682;BME280;17439;48.092;11.842;2022-10-19T00:18:27;96336.63;;;17.42;63.78
30682;BME280;17439;48.092;11.842;2022-10-19T00:21:01;96337.75;;;17.41;64.57
30682;BME280;17439;48.092;11.842;2022-10-19T00:23:28;96342.44;;;17.40;64.16
30682;BME280;17439;48.092;11.842;2022-10-19T00:25:55;96347.91;;;17.40;64.43
30682;BME280;17439;48.092;11.842;2022-10-19T00:28:22;96345.50;;;17.39;64.15
30682;BME280;17439;48.092;11.842;2022-10-19T00:30:49;96340.03;;;17.39;64.44
30682;BME280;17439;48.092;11.842;2022-10-19T00:33:16;96340.03;;;17.39;64.34
30682;BME280;17439;48.092;11.842;2022-10-19T00:35:42;96338.88;;;17.40;64.52
30682;BME280;17439;48.092;11.842;2022-10-19T00:38:09;96335.34;;;17.39;64.27
30682;BME280;17439;48.092;11.842;2022-10-19T00:40:37;96343.22;;;17.41;64.45
30682;BME280;17439;48.092;11.842;2022-10-19T00:43:08;96333.41;;;17.40;64.53
30682;BME280;17439;48.092;11.842;2022-10-19T00:45:38;96332.59;;;17.39;64.12
30682;BME280;17439;48.092;11.842;2022-10-19T00:48:05;96334.56;;;17.39;63.94
30682;BME280;17439;48.092;11.842;2022-10-19T00:50:31;96333.25;;;17.36;63.87
30682;BME280;17439;48.092;11.842;2022-10-19T00:52:58;96335.53;;;17.34;63.79
30682;BME280;17439;48.092;11.842;2022-10-19T00:55:25;96328.78;;;17.32;63.84
30682;BME280;17439;48.092;11.842;2022-10-19T00:57:52;96331.41;;;17.28;63.94
30682;BME280;17439;48.092;11.842;2022-10-19T01:00:19;96335.91;;;17.24;63.67
30682;BME280;17439;48.092;11.842;2022-10-19T01:02:45;96332.59;;;17.18;63.67
30682;BME280;17439;48.092;11.842;2022-10-19T01:07:55;96340.84;;;17.10;63.55
30682;BME280;17439;48.092;11.842;2022-10-19T01:10:30;96332.03;;;17.04;64.22
30682;BME280;17439;48.092;11.842;2022-10-19T01:13:32;96339.63;;;16.98;64.25
30682;BME280;17439;48.092;11.842;2022-10-19T01:16:19;96334.00;;;16.95;64.37
30682;BME280;17439;48.092;11.842;2022-10-19T01:18:57;96332.72;;;16.92;64.47
30682;BME280;17439;48.092;11.842;2022-10-19T01:21:54;96322.75;;;16.88;64.35
30682;BME280;17439;48.092;11.842;2022-10-19T01:24:39;96324.22;;;16.85;64.13
30682;BME280;17439;48.092;11.842;2022-10-19T01:30:14;96321.66;;;16.80;63.89
30682;BME280;17439;48.092;11.842;2022-10-19T01:32:50;96314.44;;;16.75;64.24
30682;BME280;17439;48.092;11.842;2022-10-19T01:35:38;96326.84;;;16.73;64.37
30682;BME280;17439;48.092;11.842;2022-10-19T01:38:34;96317.66;;;16.68;64.47
30682;BME280;17439;48.092;11.842;2022-10-19T01:43:42;96315.75;;;16.69;64.79
30682;BME280;17439;48.092;11.842;2022-10-19T01:46:21;96316.88;;;16.68;65.24
30682;BME280;17439;48.092;11.842;2022-10-19T01:48:55;96320.41;;;16.68;65.21
30682;BME280;17439;48.092;11.842;2022-10-19T01:51:30;96316.53;;;16.69;65.37
30682;BME280;17439;48.092;11.842;2022-10-19T01:54:02;96309.28;;;16.74;65.35
30682;BME280;17439;48.092;11.842;2022-10-19T01:56:30;96317.63;;;16.77;64.84
30682;BME280;17439;48.092;11.842;2022-10-19T01:59:02;96310.22;;;16.78;65.17
30682;BME280;17439;48.092;11.842;2022-10-19T02:01:33;96307.16;;;16.79;65.09
30682;BME280;17439;48.092;11.842;2022-10-19T02:04:02;96306.81;;;16.81;64.83
30682;BME280;17439;48.092;11.842;2022-10-19T02:06:29;96317.44;;;16.82;64.96
30682;BME280;17439;48.092;11.842;2022-10-19T02:08:55;96320.97;;;16.83;65.14
30682;BME280;17439;48.092;11.842;2022-10-19T02:11:22;96318.72;;;16.85;65.17
30682;BME280;17439;48.092;11.842;2022-10-19T02:13:53;96320.34;;;16.86;65.61
30682;BME280;17439;48.092;11.842;2022-10-19T02:16:45;96316.00;;;16.85;65.40
30682;BME280;17439;48.092;11.842;2022-10-19T02:19:14;96316.47;;;16.87;65.08
30682;BME280;17439;48.092;11.842;2022-10-19T02:21:41;96313.09;;;16.90;64.91
30682;BME280;17439;48.092;11.842;2022-10-19T02:24:08;96305.66;;;16.91;64.83
30682;BME280;17439;48.092;11.842;2022-10-19T02:26:35;96298.28;;;16.91;65.13
30682;BME280;17439;48.092;11.842;2022-10-19T02:29:02;96308.06;;;16.92;64.89
30682;BME280;17439;48.092;11.842;2022-10-19T02:31:28;96311.63;;;16.93;64.91
30682;BME280;17439;48.092;11.842;2022-10-19T02:33:55;96298.28;;;16.91;65.04
30682;BME280;17439;48.092;11.842;2022-10-19T02:36:22;96288.91;;;16.92;64.70
30682;BME280;17439;48.092;11.842;2022-10-19T02:38:49;96297.78;;;16.89;64.72
30682;BME280;17439;48.092;11.842;2022-10-19T02:41:35;96289.09;;;16.87;64.57
30682;BME280;17439;48.092;11.842;2022-10-19T02:44:09;96296.00;;;16.84;65.09
30682;BME280;17439;48.092;11.842;2022-10-19T02:46:49;96288.94;;;16.83;64.88
30682;BME280;17439;48.092;11.842;2022-10-19T02:49:20;96290.84;;;16.83;64.66
30682;BME280;17439;48.092;11.842;2022-10-19T02:51:59;96287.66;;;16.81;65.14
30682;BME280;17439;48.092;11.842;2022-10-19T02:54:26;96283.31;;;16.80;64.50
30682;BME280;17439;48.092;11.842;2022-10-19T02:56:53;96292.19;;;16.77;64.34
30682;BME280;17439;48.092;11.842;2022-10-19T02:59:20;96288.97;;;16.75;64.60
30682;BME280;17439;48.092;11.842;2022-10-19T03:01:46;96292.38;;;16.72;64.51
30682;BME280;17439;48.092;11.842;2022-10-19T03:04:13;96281.28;;;16.68;64.50
30682;BME280;17439;48.092;11.842;2022-10-19T03:06:40;96282.72;;;16.65;64.57
30682;BME280;17439;48.092;11.842;2022-10-19T03:09:07;96286.16;;;16.62;64.68
30682;BME280;17439;48.092;11.842;2022-10-19T03:11:33;96282.13;;;16.60;64.74
30682;BME280;17439;48.092;11.842;2022-10-19T03:14:00;96285.66;;;16.60;64.84
30682;BME280;17439;48.092;11.842;2022-10-19T03:16:27;96285.66;;;16.60;64.82
30682;BME280;17439;48.092;11.842;2022-10-19T03:18:53;96277.44;;;16.60;65.17
30682;BME280;17439;48.092;11.842;2022-10-19T03:21:20;96284.53;;;16.61;65.28
30682;BME280;17439;48.092;11.842;2022-10-19T03:23:46;96289.22;;;16.61;65.15
30682;BME280;17439;48.092;11.842;2022-10-19T03:26:14;96283.41;;;16.62;65.34
30682;BME280;17439;48.092;11.842;2022-10-19T03:28:41;96281.47;;;16.63;65.03
30682;BME280;17439;48.092;11.842;2022-10-19T03:31:08;96282.28;;;16.63;64.87
30682;BME280;17439;48.092;11.842;2022-10-19T03:33:35;96289.34;;;16.64;64.95
30682;BME280;17439;48.092;11.842;2022-10-19T03:36:24;96279.84;;;16.62;65.58
30682;BME280;17439;48.092;11.842;2022-10-19T03:38:52;96285.34;;;16.62;65.20
30682;BME280;17439;48.092;11.842;2022-10-19T03:41:20;96277.13;;;16.62;65.16
30682;BME280;17439;48.092;11.842;2022-10-19T03:43:47;96275.53;;;16.61;64.95
30682;BME280;17439;48.092;11.842;2022-10-19T03:46:14;96270.06;;;16.61;65.17
30682;BME280;17439;48.092;11.842;2022-10-19T03:48:42;96268.44;;;16.60;65.07
30682;BME280;17439;48.092;11.842;2022-10-19T03:51:11;96278.59;;;16.59;65.14
30682;BME280;17439;48.092;11.842;2022-10-19T03:53:39;96274.25;;;16.58;65.12
30682;BME280;17439;48.092;11.842;2022-10-19T03:56:14;96264.41;;;16.57;65.16
30682;BME280;17439;48.092;11.842;2022-10-19T03:58:43;96261.69;;;16.57;65.28
30682;BME280;17439;48.092;11.842;2022-10-19T04:01:14;96257.03;;;16.58;65.71
30682;BME280;17439;48.092;11.842;2022-10-19T04:03:42;96261.34;;;16.59;65.38
30682;BME280;17439;48.092;11.842;2022-10-19T04:06:12;96262.19;;;16.59;65.96
30682;BME280;17439;48.092;11.842;2022-10-19T04:08:43;96259.44;;;16.59;65.64
30682;BME280;17439;48.092;11.842;2022-10-19T04:11:12;96253.63;;;16.61;65.96
30682;BME280;17439;48.092;11.842;2022-10-19T04:13:39;96252.47;;;16.62;65.98
30682;BME280;17439;48.092;11.842;2022-10-19T04:16:06;96256.19;;;16.66;65.90
30682;BME280;17439;48.092;11.842;2022-10-19T04:18:33;96252.63;;;16.65;65.82
30682;BME280;17439;48.092;11.842;2022-10-19T04:21:03;96258.59;;;16.67;65.83
30682;BME280;17439;48.092;11.842;2022-10-19T04:23:32;96269.22;;;16.69;65.88
30682;BME280;17439;48.092;11.842;2022-10-19T04:26:04;96265.00;;;16.72;65.69
30682;BME280;17439;48.092;11.842;2022-10-19T04:28:31;96262.75;;;16.74;65.91
30682;BME280;17439;48.092;11.842;2022-10-19T04:31:01;96270.63;;;16.75;66.07
30682;BME280;17439;48.092;11.842;2022-10-19T04:33:28;96267.56;;;16.77;65.89
30682;BME280;17439;48.092;11.842;2022-10-19T04:36:01;96265.28;;;16.79;66.20
30682;BME280;17439;48.092;11.842;2022-10-19T04:38:28;96260.28;;;16.81;66.00
30682;BME280;17439;48.092;11.842;2022-10-19T04:40:55;96257.19;;;16.82;66.04
30682;BME280;17439;48.092;11.842;2022-10-19T04:43:21;96259.31;;;16.85;66.05
30682;BME280;17439;48.092;11.842;2022-10-19T04:45:48;96253.97;;;16.89;66.03
30682;BME280;17439;48.092;11.842;2022-10-19T04:48:15;96254.47;;;16.91;66.20
30682;BME280;17439;48.092;11.842;2022-10-19T04:50:41;96251.38;;;16.93;66.14
30682;BME280;17439;48.092;11.842;2022-10-19T04:53:18;96247.16;;;16.95;65.85
30682;BME280;17439;48.092;11.842;2022-10-19T04:55:44;96246.84;;;16.97;65.92
30682;BME280;17439;48.092;11.842;2022-10-19T04:58:11;96246.16;;;17.00;66.11
30682;BME280;17439;48.092;11.842;2022-10-19T05:00:38;96251.66;;;17.00;66.11
30682;BME280;17439;48.092;11.842;2022-10-19T05:03:04;96242.31;;;17.01;66.07
30682;BME280;17439;48.092;11.842;2022-10-19T05:05:31;96240.81;;;17.03;66.13
30682;BME280;17439;48.092;11.842;2022-10-19T05:07:58;96237.28;;;17.03;66.06
30682;BME280;17439;48.092;11.842;2022-10-19T05:10:25;96235.50;;;17.07;65.91
30682;BME280;17439;48.092;11.842;2022-10-19T05:12:52;96237.91;;;17.09;66.07
30682;BME280;17439;48.092;11.842;2022-10-19T05:15:19;96234.00;;;17.10;65.94
30682;BME280;17439;48.092;11.842;2022-10-19T05:17:46;96229.03;;;17.12;65.99
30682;BME280;17439;48.092;11.842;2022-10-19T05:20:12;96231.44;;;17.13;66.02
30682;BME280;17439;48.092;11.842;2022-10-19T05:22:39;96235.75;;;17.14;66.02
30682;BME280;17439;48.092;11.842;2022-10-19T05:25:06;96232.34;;;17.17;65.86
30682;BME280;17439;48.092;11.842;2022-10-19T05:27:33;96229.59;;;17.17;65.89
30682;BME280;17439;48.092;11.842;2022-10-19T05:30:00;96224.59;;;17.19;65.86
30682;BME280;17439;48.092;11.842;2022-10-19T05:32:27;96221.50;;;17.21;65.72
30682;BME280;17439;48.092;11.842;2022-10-19T05:34:53;96226.19;;;17.20;65.85
30682;BME280;17439;48.092;11.842;2022-10-19T05:37:23;96221.50;;;17.21;66.42
30682;BME280;17439;48.092;11.842;2022-10-19T05:39:50;96217.66;;;17.22;65.98
30682;BME280;17439;48.092;11.842;2022-10-19T05:42:17;96212.97;;;17.22;66.13
30682;BME280;17439;48.092;11.842;2022-10-19T05:44:43;96220.06;;;17.23;66.05
30682;BME280;17439;48.092;11.842;2022-10-19T05:47:10;96212.28;;;17.26;65.89
30682;BME280;17439;48.092;11.842;2022-10-19T05:49:36;96215.84;;;17.26;66.00
30682;BME280;17439;48.092;11.842;2022-10-19T05:52:03;96216.31;;;17.28;66.14
30682;BME280;17439;48.092;11.842;2022-10-19T05:54:29;96217.59;;;17.31;65.93
30682;BME280;17439;48.092;11.842;2022-10-19T05:56:56;96221.56;;;17.33;65.91
30682;BME280;17439;48.092;11.842;2022-10-19T05:59:22;96221.25;;;17.35;65.75
30682;BME280;17439;48.092;11.842;2022-10-19T06:01:49;96223.66;;;17.36;65.78
30682;BME280;17439;48.092;11.842;2022-10-19T06:04:16;96225.94;;;17.34;65.83
30682;BME280;17439;48.092;11.842;2022-10-19T06:07:02;96231.41;;;17.34;65.96
30682;BME280;17439;48.092;11.842;2022-10-19T06:09:29;96225.94;;;17.34;66.12
30682;BME280;17439;48.092;11.842;2022-10-19T06:11:55;96234.47;;;17.33;65.98
30682;BME280;17439;48.092;11.842;2022-10-19T06:14:22;96229.78;;;17.33;66.08
30682;BME280;17439;48.092;11.842;2022-10-19T06:16:48;96229.78;;;17.33;66.37
30682;BME280;17439;48.092;11.842;2022-10-19T06:19:15;96232.19;;;17.35;66.13
30682;BME280;17439;48.092;11.842;2022-10-19T06:21:43;96246.38;;;17.37;66.16
30682;BME280;17439;48.092;11.842;2022-10-19T06:24:11;96240.09;;;17.36;66.33
30682;BME280;17439;48.092;11.842;2022-10-19T06:26:38;96243.63;;;17.37;66.38
30682;BME280;17439;48.092;11.842;2022-10-19T06:29:04;96246.03;;;17.38;66.44
30682;BME280;17439;48.092;11.842;2022-10-19T06:31:33;96242.16;;;17.39;66.75
30682;BME280;17439;48.092;11.842;2022-10-19T06:34:01;96252.00;;;17.40;66.71
30682;BME280;17439;48.092;11.842;2022-10-19T06:36:29;96254.06;;;17.44;66.61
30682;BME280;17439;48.092;11.842;2022-10-19T06:38:56;96257.28;;;17.46;66.93
30682;BME280;17439;48.092;11.842;2022-10-19T06:41:22;96249.63;;;17.51;66.35
30682;BME280;17439;48.092;11.842;2022-10-19T06:43:50;96258.00;;;17.55;66.08
30682;BME280;17439;48.092;11.842;2022-10-19T06:46:18;96262.31;;;17.56;65.93
30682;BME280;17439;48.092;11.842;2022-10-19T06:49:03;96256.72;;;17.52;66.47
30682;BME280;17439;48.092;11.842;2022-10-19T06:51:30;96265.72;;;17.53;66.56
30682;BME280;17439;48.092;11.842;2022-10-19T06:53:57;96259.91;;;17.54;66.45
30682;BME280;17439;48.092;11.842;2022-10-19T06:56:24;96261.19;;;17.57;66.54
30682;BME280;17439;48.092;11.842;2022-10-19T06:58:52;96271.16;;;17.62;66.54
30682;BME280;17439;48.092;11.842;2022-10-19T07:01:19;96263.38;;;17.64;66.15
30682;BME280;17439;48.092;11.842;2022-10-19T07:03:46;96263.06;;;17.65;66.41
30682;BME280;17439;48.092;11.842;2022-10-19T07:06:13;96268.66;;;17.69;66.37
30682;BME280;17439;48.092;11.842;2022-10-19T07:08:41;96276.53;;;17.70;66.49
30682;BME280;17439;48.092;11.842;2022-10-19T07:11:14;96276.63;;;17.62;66.32
30682;BME280;17439;48.092;11.842;2022-10-19T07:13:41;96276.38;;;17.75;66.52
30682;BME280;17439;48.092;11.842;2022-10-19T07:16:10;96285.50;;;17.80;66.05
30682;BME280;17439;48.092;11.842;2022-10-19T07:18:45;96278.88;;;17.81;66.19
30682;BME280;17439;48.092;11.842;2022-10-19T07:21:13;96280.50;;;17.82;66.14
30682;BME280;17439;48.092;11.842;2022-10-19T07:23:42;96280.97;;;17.84;66.16
30682;BME280;17439;48.092;11.842;2022-10-19T07:26:12;96282.53;;;17.72;66.29
30682;BME280;17439;48.092;11.842;2022-10-19T07:28:40;96283.25;;;17.82;66.17
30682;BME280;17439;48.092;11.842;2022-10-19T07:31:10;96276.59;;;17.83;66.22
30682;BME280;17439;48.092;11.842;2022-10-19T07:33:38;96277.41;;;17.83;66.39
30682;BME280;17439;48.092;11.842;2022-10-19T07:36:07;96278.22;;;17.84;66.44
30682;BME280;17439;48.092;11.842;2022-10-19T07:38:35;96272.72;;;17.84;66.31
30682;BME280;17439;48.092;11.842;2022-10-19T07:41:09;96275.94;;;17.86;66.29
30682;BME280;17439;48.092;11.842;2022-10-19T07:43:36;96269.31;;;17.87;66.27
30682;BME280;17439;48.092;11.842;2022-10-19T07:46:11;96271.56;;;17.85;66.21
30682;BME280;17439;48.092;11.842;2022-10-19T07:48:37;96277.88;;;17.85;66.36
30682;BME280;17439;48.092;11.842;2022-10-19T07:51:06;96266.44;;;17.83;66.61
30682;BME280;17439;48.092;11.842;2022-10-19T07:53:33;96277.75;;;17.82;66.82
30682;BME280;17439;48.092;11.842;2022-10-19T07:56:11;96278.09;;;17.80;67.07
30682;BME280;17439;48.092;11.842;2022-10-19T07:58:39;96272.28;;;17.82;67.09
30682;BME280;17439;48.092;11.842;2022-10-19T08:01:11;96276.59;;;17.83;67.16
30682;BME280;17439;48.092;11.842;2022-10-19T08:03:38;96272.53;;;17.89;67.33
30682;BME280;17439;48.092;11.842;2022-10-19T08:06:26;96269.56;;;17.94;66.98
30682;BME280;17439;48.092;11.842;2022-10-19T08:08:54;96278.41;;;18.00;67.03
30682;BME280;17439;48.092;11.842;2022-10-19T08:11:27;96278.53;;;18.03;67.26
30682;BME280;17439;48.092;11.842;2022-10-19T08:13:54;96277.16;;;18.09;67.39
30682;BME280;17439;48.092;11.842;2022-10-19T08:16:27;96280.19;;;18.17;67.20
30682;BME280;17439;48.092;11.842;2022-10-19T08:18:57;96271.50;;;18.27;66.30
30682;BME280;17439;48.092;11.842;2022-10-19T08:21:25;96270.13;;;18.33;66.18
30682;BME280;17439;48.092;11.842;2022-10-19T08:23:52;96264.88;;;18.40;65.50
30682;BME280;17439;48.092;11.842;2022-10-19T08:26:19;96275.97;;;18.44;65.46
30682;BME280;17439;48.092;11.842;2022-10-19T08:28:46;96270.16;;;18.45;65.57
30682;BME280;17439;48.092;11.842;2022-10-19T08:31:19;96269.00;;;18.46;65.37
30682;BME280;17439;48.092;11.842;2022-10-19T08:33:48;96272.22;;;18.48;65.76
30682;BME280;17439;48.092;11.842;2022-10-19T08:36:15;96277.00;;;18.52;65.91
30682;BME280;17439;48.092;11.842;2022-10-19T08:38:42;96272.53;;;18.59;65.26
30682;BME280;17439;48.092;11.842;2022-10-19T08:46:59;96276.31;;;18.67;64.74
30682;BME280;17439;48.092;11.842;2022-10-19T08:49:31;96278.03;;;18.72;64.13
30682;BME280;17439;48.092;11.842;2022-10-19T08:52:01;96275.41;;;18.75;63.83
30682;BME280;17439;48.092;11.842;2022-10-19T08:54:51;96273.69;;;18.71;63.75
30682;BME280;17439;48.092;11.842;2022-10-19T08:57:41;96275.28;;;18.72;64.08
30682;BME280;17439;48.092;11.842;2022-10-19T09:05:51;96277.34;;;18.62;64.91
30682;BME280;17439;48.092;11.842;2022-10-19T09:08:19;96271.16;;;18.65;65.31
30682;BME280;17439;48.092;11.842;2022-10-19T09:10:49;96272.09;;;18.70;64.96
30682;BME280;17439;48.092;11.842;2022-10-19T09:13:23;96266.25;;;18.71;64.86
30682;BME280;17439;48.092;11.842;2022-10-19T09:16:15;96272.31;;;18.77;65.11
30682;BME280;17439;48.092;11.842;2022-10-19T09:18:44;96271.63;;;18.80;64.91
30682;BME280;17439;48.092;11.842;2022-10-19T09:21:15;96275.66;;;18.82;64.12
30682;BME280;17439;48.092;11.842;2022-10-19T09:23:45;96261.69;;;18.88;64.90
30682;BME280;17439;48.092;11.842;2022-10-19T09:26:17;96275.88;;;18.90;64.67
30682;BME280;17439;48.092;11.842;2022-10-19T09:28:57;96272.44;;;18.93;64.90
30682;BME280;17439;48.092;11.842;2022-10-19T09:31:32;96273.81;;;18.99;64.36
30682;BME280;17439;48.092;11.842;2022-10-19T09:34:11;96262.59;;;19.04;63.69
30682;BME280;17439;48.092;11.842;2022-10-19T09:36:42;96271.66;;;19.05;63.89
30682;BME280;17439;48.092;11.842;2022-10-19T09:39:16;96266.16;;;19.05;64.01
30682;BME280;17439;48.092;11.842;2022-10-19T09:41:50;96278.72;;;19.06;64.09
30682;BME280;17439;48.092;11.842;2022-10-19T09:44:19;96283.19;;;19.10;63.81
30682;BME280;17439;48.092;11.842;2022-10-19T09:46:54;96278.03;;;19.09;63.18
30682;BME280;17439;48.092;11.842;2022-10-19T09:49:44;96283.44;;;19.05;63.54
30682;BME280;17439;48.092;11.842;2022-10-19T09:52:32;96288.25;;;19.08;63.51
30682;BME280;17439;48.092;11.842;2022-10-19T09:55:06;96281.59;;;19.09;62.94
30682;BME280;17439;48.092;11.842;2022-10-19T09:57:41;96285.50;;;19.08;62.84
30682;BME280;17439;48.092;11.842;2022-10-19T10:00:31;96290.41;;;19.02;62.93
30682;BME280;17439;48.092;11.842;2022-10-19T10:02:58;96277.84;;;19.01;62.45
30682;BME280;17439;48.092;11.842;2022-10-19T10:05:38;96273.47;;;19.00;62.67
30682;BME280;17439;48.092;11.842;2022-10-19T10:08:17;96283.22;;;18.98;62.73
30682;BME280;17439;48.092;11.842;2022-10-19T10:10:47;96286.31;;;18.96;62.78
30682;BME280;17439;48.092;11.842;2022-10-19T10:13:20;96274.06;;;18.94;62.89
30682;BME280;17439;48.092;11.842;2022-10-19T10:15:54;96269.84;;;18.96;62.65
30682;BME280;17439;48.092;11.842;2022-10-19T10:18:23;96281.50;;;18.93;62.70
30682;BME280;17439;48.092;11.842;2022-10-19T10:23:34;96278.28;;;18.91;63.50
30682;BME280;17439;48.092;11.842;2022-10-19T10:26:03;96282.75;;;18.96;63.08
30682;BME280;17439;48.092;11.842;2022-10-19T10:28:30;96274.97;;;18.98;63.58
30682;BME280;17439;48.092;11.842;2022-10-19T10:31:03;96277.16;;;19.05;62.59
30682;BME280;17439;48.092;11.842;2022-10-19T10:33:32;96271.75;;;19.08;62.28
30682;BME280;17439;48.092;11.842;2022-10-19T10:36:16;96267.88;;;19.09;62.55
30682;BME280;17439;48.092;11.842;2022-10-19T10:38:46;96267.19;;;19.12;62.53
30682;BME280;17439;48.092;11.842;2022-10-19T10:41:16;96272.88;;;19.19;62.04
30682;BME280;17439;48.092;11.842;2022-10-19T10:43:51;96270.69;;;19.25;60.88
30682;BME280;17439;48.092;11.842;2022-10-19T10:46:27;96260.16;;;19.27;60.77
30682;BME280;17439;48.092;11.842;2022-10-19T10:49:00;96255.00;;;19.26;61.31
30682;BME280;17439;48.092;11.842;2022-10-19T10:56:56;96254.06;;;19.21;61.40
30682;BME280;17439;48.092;11.842;2022-10-19T10:59:56;96249.50;;;19.26;61.70
30682;BME280;17439;48.092;11.842;2022-10-19T11:05:34;96240.22;;;19.30;61.63
30682;BME280;17439;48.092;11.842;2022-10-19T11:11:11;96241.13;;;19.34;61.56
30682;BME280;17439;48.092;11.842;2022-10-19T11:13:53;96241.22;;;19.38;61.33
30682;BME280;17439;48.092;11.842;2022-10-19T11:16:26;96240.19;;;19.43;61.59
30682;BME280;17439;48.092;11.842;2022-10-19T11:18:59;96236.03;;;19.49;60.60
30682;BME280;17439;48.092;11.842;2022-10-19T11:21:36;96231.41;;;19.53;60.48
30682;BME280;17439;48.092;11.842;2022-10-19T11:24:24;96221.22;;;19.53;60.29
30682;BME280;17439;48.092;11.842;2022-10-19T11:30:16;96213.53;;;19.59;60.55
30682;BME280;17439;48.092;11.842;2022-10-19T11:35:50;96222.06;;;19.70;60.67
30682;BME280;17439;48.092;11.842;2022-10-19T11:41:20;96212.63;;;19.83;60.60
30682;BME280;17439;48.092;11.842;2022-10-19T11:47:01;96210.16;;;19.94;59.36
30682;BME280;17439;48.092;11.842;2022-10-19T11:49:51;96205.22;;;20.00;59.15
30682;BME280;17439;48.092;11.842;2022-10-19T11:53:08;96199.78;;;20.03;59.91
30682;BME280;17439;48.092;11.842;2022-10-19T11:55:38;96190.84;;;20.06;59.18
30682;BME280;17439;48.092;11.842;2022-10-19T12:00:59;96180.34;;;20.12;59.23
30682;BME280;17439;48.092;11.842;2022-10-19T12:09:04;96175.09;;;20.23;57.92
30682;BME280;17439;48.092;11.842;2022-10-19T12:14:17;96171.91;;;20.21;58.47
30682;BME280;17439;48.092;11.842;2022-10-19T12:16:55;96176.63;;;20.20;58.61
30682;BME280;17439;48.092;11.842;2022-10-19T12:19:31;96171.56;;;20.22;59.06
30682;BME280;17439;48.092;11.842;2022-10-19T12:22:05;96165.72;;;20.24;58.42
30682;BME280;17439;48.092;11.842;2022-10-19T12:24:33;96169.69;;;20.26;59.90
30682;BME280;17439;48.092;11.842;2022-10-19T12:27:00;96157.97;;;20.29;59.92
30682;BME280;17439;48.092;11.842;2022-10-19T12:29:33;96153.34;;;20.34;58.61
30682;BME280;17439;48.092;11.842;2022-10-19T12:32:02;96155.38;;;20.37;59.48
30682;BME280;17439;48.092;11.842;2022-10-19T12:37:17;96139.38;;;20.42;58.14
30682;BME280;17439;48.092;11.842;2022-10-19T12:39:52;96142.22;;;20.46;58.88
30682;BME280;17439;48.092;11.842;2022-10-19T12:45:24;96134.13;;;20.53;58.28
30682;BME280;17439;48.092;11.842;2022-10-19T12:53:23;96123.03;;;20.65;57.20
30682;BME280;17439;48.092;11.842;2022-10-19T12:56:17;96113.69;;;20.70;59.08
30682;BME280;17439;48.092;11.842;2022-10-19T12:58:49;96114.19;;;20.76;59.07
30682;BME280;17439;48.092;11.842;2022-10-19T13:04:13;96108.13;;;20.86;57.25
30682;BME280;17439;48.092;11.842;2022-10-19T13:14:59;96094.38;;;21.09;54.92
30682;BME280;17439;48.092;11.842;2022-10-19T13:27:42;96094.59;;;21.20;55.21
30682;BME280;17439;48.092;11.842;2022-10-19T13:32:54;96080.03;;;21.19;55.70
30682;BME280;17439;48.092;11.842;2022-10-19T13:35:33;96074.16;;;21.21;54.88
30682;BME280;17439;48.092;11.842;2022-10-19T13:43:24;96070.47;;;21.13;53.14
30682;BME280;17439;48.092;11.842;2022-10-19T13:48:36;96066.41;;;21.07;53.93
30682;BME280;17439;48.092;11.842;2022-10-19T13:53:56;96062.44;;;21.05;54.27
30682;BME280;17439;48.092;11.842;2022-10-19T13:56:45;96058.84;;;21.04;54.61
30682;BME280;17439;48.092;11.842;2022-10-19T13:59:50;96060.47;;;21.05;54.54
30682;BME280;17439;48.092;11.842;2022-10-19T14:05:46;96051.69;;;20.99;53.16
30682;BME280;17439;48.092;11.842;2022-10-19T14:11:36;96050.69;;;20.88;53.88
30682;BME280;17439;48.092;11.842;2022-10-19T14:14:12;96036.53;;;20.90;53.83
30682;BME280;17439;48.092;11.842;2022-10-19T14:16:47;96044.50;;;20.95;53.69
30682;BME280;17439;48.092;11.842;2022-10-19T14:19:27;96031.97;;;20.97;52.68
30682;BME280;17439;48.092;11.842;2022-10-19T14:21:57;96035.28;;;21.07;55.01
30682;BME280;17439;48.092;11.842;2022-10-19T14:24:33;96031.88;;;21.13;54.42
30682;BME280;17439;48.092;11.842;2022-10-19T14:27:02;96041.50;;;21.23;55.09
30682;BME280;17439;48.092;11.842;2022-10-19T14:29:34;96029.81;;;21.30;54.08
30682;BME280;17439;48.092;11.842;2022-10-19T14:32:02;96028.78;;;21.38;54.32
30682;BME280;17439;48.092;11.842;2022-10-19T14:34:29;96031.66;;;21.45;54.38
30682;BME280;17439;48.092;11.842;2022-10-19T14:36:56;96021.94;;;21.51;53.75
30682;BME280;17439;48.092;11.842;2022-10-19T14:39:31;96022.53;;;21.64;50.89
30682;BME280;17439;48.092;11.842;2022-10-19T14:42:08;96022.13;;;21.62;51.31
30682;BME280;17439;48.092;11.842;2022-10-19T14:44:40;96020.84;;;21.56;51.64
30682;BME280;17439;48.092;11.842;2022-10-19T14:47:18;96023.91;;;21.51;51.30
30682;BME280;17439;48.092;11.842;2022-10-19T14:49:45;96014.75;;;21.47;52.51
30682;BME280;17439;48.092;11.842;2022-10-19T14:52:16;96007.88;;;21.37;52.04
30682;BME280;17439;48.092;11.842;2022-10-19T14:54:46;96011.31;;;21.30;51.96
30682;BME280;17439;48.092;11.842;2022-10-19T14:57:19;96013.50;;;21.21;52.26
30682;BME280;17439;48.092;11.842;2022-10-19T14:59:57;96008.53;;;21.07;52.44
30682;BME280;17439;48.092;11.842;2022-10-19T15:02:31;96012.69;;;20.97;52.52